sensor_id;sensor_type;location;lat;lon;timestamp;temperature;humidity
76936;DHT22;65881;52.438;16.744;2024-01-27T00:01:47;4.20;99.90
76936;DHT22;65881;52.438;16.744;2024-01-27T00:04:13;4.20;99.90
76936;DHT22;65881;52.438;16.744;2024-01-27T00:06:39;4.20;99.90
76936;DHT22;65881;52.438;16.744;2024-01-27T00:09:04;4.30;99.90
76936;DHT22;65881;52.438;16.744;2024-01-27T00:11:31;4.20;99.90
76936;DHT22;65881;52.438;16.744;2024-01-27T00:13:57;4.20;99.90
76936;DHT22;65881;52.438;16.744;2024-01-27T00:16:25;4.20;99.90
76936;DHT22;65881;52.438;16.744;2024-01-27T00:18:51;4.20;99.90
76936;DHT22;65881;52.438;16.744;2024-01-27T00:21:16;4.20;99.90
76936;DHT22;65881;52.438;16.744;2024-01-27T00:23:42;4.20;99.90
76936;DHT22;65881;52.438;16.744;2024-01-27T00:26:08;4.20;99.90
76936;DHT22;65881;52.438;16.744;2024-01-27T00:28:39;4.20;99.90
76936;DHT22;65881;52.438;16.744;2024-01-27T00:31:05;4.20;99.90
76936;DHT22;65881;52.438;16.744;2024-01-27T00:33:30;4.10;99.90
76936;DHT22;65881;52.438;16.744;2024-01-27T00:35:56;4.20;99.90
76936;DHT22;65881;52.438;16.744;2024-01-27T00:38:21;4.20;99.90
76936;DHT22;65881;52.438;16.744;2024-01-27T00:40:47;4.10;99.90
76936;DHT22;65881;52.438;16.744;2024-01-27T00:43:14;4.10;99.90
76936;DHT22;65881;52.438;16.744;2024-01-27T00:45:39;4.10;99.90
76936;DHT22;65881;52.438;16.744;2024-01-27T00:48:05;4.10;99.90
76936;DHT22;65881;52.438;16.744;2024-01-27T00:50:31;4.10;99.90
76936;DHT22;65881;52.438;16.744;2024-01-27T00:52:57;4.00;99.90
76936;DHT22;65881;52.438;16.744;2024-01-27T00:55:22;4.00;99.90
76936;DHT22;65881;52.438;16.744;2024-01-27T00:57:48;4.10;99.90
76936;DHT22;65881;52.438;16.744;2024-01-27T01:00:15;4.10;99.90
76936;DHT22;65881;52.438;16.744;2024-01-27T01:02:44;4.10;99.90
76936;DHT22;65881;52.438;16.744;2024-01-27T01:05:09;4.10;99.90
76936;DHT22;65881;52.438;16.744;2024-01-27T01:07:35;4.10;99.90
76936;DHT22;65881;52.438;16.744;2024-01-27T01:10:01;4.00;99.90
76936;DHT22;65881;52.438;16.744;2024-01-27T01:12:26;4.00;99.90
76936;DHT22;65881;52.438;16.744;2024-01-27T01:14:56;4.00;99.90
76936;DHT22;65881;52.438;16.744;2024-01-27T01:17:23;4.10;99.90
76936;DHT22;65881;52.438;16.744;2024-01-27T01:19:48;4.10;99.90
76936;DHT22;65881;52.438;16.744;2024-01-27T01:22:14;4.10;99.90
76936;DHT22;65881;52.438;16.744;2024-01-27T01:24:40;4.00;99.90
76936;DHT22;65881;52.438;16.744;2024-01-27T01:27:05;4.00;99.90
76936;DHT22;65881;52.438;16.744;2024-01-27T01:29:31;4.00;99.90
76936;DHT22;65881;52.438;16.744;2024-01-27T01:31:57;4.10;99.90
76936;DHT22;65881;52.438;16.744;2024-01-27T01:34:22;4.00;99.90
76936;DHT22;65881;52.438;16.744;2024-01-27T01:36:48;4.00;99.90
76936;DHT22;65881;52.438;16.744;2024-01-27T01:39:14;4.00;99.90
76936;DHT22;65881;52.438;16.744;2024-01-27T01:41:40;4.00;99.90
76936;DHT22;65881;52.438;16.744;2024-01-27T01:44:06;4.00;99.90
76936;DHT22;65881;52.438;16.744;2024-01-27T01:46:33;4.00;99.90
76936;DHT22;65881;52.438;16.744;2024-01-27T01:49:00;4.00;99.90
76936;DHT22;65881;52.438;16.744;2024-01-27T01:51:27;4.00;99.90
76936;DHT22;65881;52.438;16.744;2024-01-27T01:53:57;3.90;99.90
76936;DHT22;65881;52.438;16.744;2024-01-27T01:56:23;3.90;99.90
76936;DHT22;65881;52.438;16.744;2024-01-27T01:58:50;3.90;99.90
76936;DHT22;65881;52.438;16.744;2024-01-27T02:01:17;3.90;99.90
76936;DHT22;65881;52.438;16.744;2024-01-27T02:03:56;3.90;99.90
76936;DHT22;65881;52.438;16.744;2024-01-27T02:06:23;4.00;99.90
76936;DHT22;65881;52.438;16.744;2024-01-27T02:08:48;3.90;99.90
76936;DHT22;65881;52.438;16.744;2024-01-27T02:11:15;3.90;99.90
76936;DHT22;65881;52.438;16.744;2024-01-27T02:13:41;3.90;99.90
76936;DHT22;65881;52.438;16.744;2024-01-27T02:16:07;3.90;99.90
76936;DHT22;65881;52.438;16.744;2024-01-27T02:18:32;3.90;99.90
76936;DHT22;65881;52.438;16.744;2024-01-27T02:20:58;3.90;99.90
76936;DHT22;65881;52.438;16.744;2024-01-27T02:23:23;3.90;99.90
76936;DHT22;65881;52.438;16.744;2024-01-27T02:25:49;3.90;99.90
76936;DHT22;65881;52.438;16.744;2024-01-27T02:28:16;3.90;99.90
76936;DHT22;65881;52.438;16.744;2024-01-27T02:30:42;3.90;99.90
76936;DHT22;65881;52.438;16.744;2024-01-27T02:33:08;3.90;99.90
76936;DHT22;65881;52.438;16.744;2024-01-27T02:35:33;3.90;99.90
76936;DHT22;65881;52.438;16.744;2024-01-27T02:37:59;3.90;99.90
76936;DHT22;65881;52.438;16.744;2024-01-27T02:40:24;3.90;99.90
76936;DHT22;65881;52.438;16.744;2024-01-27T02:42:50;3.90;99.90
76936;DHT22;65881;52.438;16.744;2024-01-27T02:45:19;3.90;99.90
76936;DHT22;65881;52.438;16.744;2024-01-27T02:47:45;3.90;99.90
76936;DHT22;65881;52.438;16.744;2024-01-27T02:50:11;3.90;99.90
76936;DHT22;65881;52.438;16.744;2024-01-27T02:52:36;3.90;99.90
76936;DHT22;65881;52.438;16.744;2024-01-27T02:55:02;3.90;99.90
76936;DHT22;65881;52.438;16.744;2024-01-27T02:57:28;3.90;99.90
76936;DHT22;65881;52.438;16.744;2024-01-27T02:59:54;3.90;99.90
76936;DHT22;65881;52.438;16.744;2024-01-27T03:02:19;3.90;99.90
76936;DHT22;65881;52.438;16.744;2024-01-27T03:04:46;3.90;99.90
76936;DHT22;65881;52.438;16.744;2024-01-27T03:07:11;3.80;99.90
76936;DHT22;65881;52.438;16.744;2024-01-27T03:09:37;3.80;99.90
76936;DHT22;65881;52.438;16.744;2024-01-27T03:12:04;3.80;99.90
76936;DHT22;65881;52.438;16.744;2024-01-27T03:14:30;3.80;99.90
76936;DHT22;65881;52.438;16.744;2024-01-27T03:16:58;3.80;99.90
76936;DHT22;65881;52.438;16.744;2024-01-27T03:19:24;3.80;99.90
76936;DHT22;65881;52.438;16.744;2024-01-27T03:21:49;3.70;99.90
76936;DHT22;65881;52.438;16.744;2024-01-27T03:24:15;3.70;99.90
76936;DHT22;65881;52.438;16.744;2024-01-27T03:26:40;3.80;99.90
76936;DHT22;65881;52.438;16.744;2024-01-27T03:29:06;3.80;99.90
76936;DHT22;65881;52.438;16.744;2024-01-27T03:31:32;3.70;99.90
76936;DHT22;65881;52.438;16.744;2024-01-27T03:33:59;3.70;99.90
76936;DHT22;65881;52.438;16.744;2024-01-27T03:36:25;3.70;99.90
76936;DHT22;65881;52.438;16.744;2024-01-27T03:38:51;3.70;99.90
76936;DHT22;65881;52.438;16.744;2024-01-27T03:41:17;3.70;99.90
76936;DHT22;65881;52.438;16.744;2024-01-27T03:43:43;3.70;99.90
76936;DHT22;65881;52.438;16.744;2024-01-27T03:46:09;3.70;99.90
76936;DHT22;65881;52.438;16.744;2024-01-27T03:48:35;3.70;99.90
76936;DHT22;65881;52.438;16.744;2024-01-27T03:51:01;3.70;99.90
76936;DHT22;65881;52.438;16.744;2024-01-27T03:53:27;3.70;99.90
76936;DHT22;65881;52.438;16.744;2024-01-27T03:55:53;3.70;99.90
76936;DHT22;65881;52.438;16.744;2024-01-27T03:58:19;3.60;99.90
76936;DHT22;65881;52.438;16.744;2024-01-27T04:00:48;3.70;99.90
76936;DHT22;65881;52.438;16.744;2024-01-27T04:03:14;3.70;99.90
76936;DHT22;65881;52.438;16.744;2024-01-27T04:05:39;3.70;99.90
76936;DHT22;65881;52.438;16.744;2024-01-27T04:08:05;3.60;99.90
76936;DHT22;65881;52.438;16.744;2024-01-27T04:10:31;3.60;99.90
76936;DHT22;65881;52.438;16.744;2024-01-27T04:12:57;3.60;99.90
76936;DHT22;65881;52.438;16.744;2024-01-27T04:15:23;3.60;99.90
76936;DHT22;65881;52.438;16.744;2024-01-27T04:17:48;3.60;99.90
76936;DHT22;65881;52.438;16.744;2024-01-27T04:20:14;3.60;99.90
76936;DHT22;65881;52.438;16.744;2024-01-27T04:22:40;3.60;99.90
76936;DHT22;65881;52.438;16.744;2024-01-27T04:25:06;3.60;99.90
76936;DHT22;65881;52.438;16.744;2024-01-27T04:27:36;3.60;99.90
76936;DHT22;65881;52.438;16.744;2024-01-27T04:30:01;3.50;99.90
76936;DHT22;65881;52.438;16.744;2024-01-27T04:32:27;3.50;99.90
76936;DHT22;65881;52.438;16.744;2024-01-27T04:34:52;3.50;99.90
76936;DHT22;65881;52.438;16.744;2024-01-27T04:37:18;3.50;99.90
76936;DHT22;65881;52.438;16.744;2024-01-27T04:39:44;3.50;99.90
76936;DHT22;65881;52.438;16.744;2024-01-27T04:42:09;3.50;99.90
76936;DHT22;65881;52.438;16.744;2024-01-27T04:44:35;3.50;99.90
76936;DHT22;65881;52.438;16.744;2024-01-27T04:47:00;3.40;99.90
76936;DHT22;65881;52.438;16.744;2024-01-27T04:49:26;3.50;99.90
76936;DHT22;65881;52.438;16.744;2024-01-27T04:51:52;3.50;99.90
76936;DHT22;65881;52.438;16.744;2024-01-27T04:54:18;3.50;99.90
76936;DHT22;65881;52.438;16.744;2024-01-27T04:56:43;3.50;99.90
76936;DHT22;65881;52.438;16.744;2024-01-27T04:59:09;3.50;99.90
76936;DHT22;65881;52.438;16.744;2024-01-27T05:01:35;3.50;99.90
76936;DHT22;65881;52.438;16.744;2024-01-27T05:04:00;3.50;99.90
76936;DHT22;65881;52.438;16.744;2024-01-27T05:06:26;3.50;99.90
76936;DHT22;65881;52.438;16.744;2024-01-27T05:08:52;3.50;99.90
76936;DHT22;65881;52.438;16.744;2024-01-27T05:11:32;3.50;99.90
76936;DHT22;65881;52.438;16.744;2024-01-27T05:13:58;3.50;99.90
76936;DHT22;65881;52.438;16.744;2024-01-27T05:16:24;3.50;99.90
76936;DHT22;65881;52.438;16.744;2024-01-27T05:18:50;3.50;99.90
76936;DHT22;65881;52.438;16.744;2024-01-27T05:21:15;3.50;99.90
76936;DHT22;65881;52.438;16.744;2024-01-27T05:23:41;3.50;99.90
76936;DHT22;65881;52.438;16.744;2024-01-27T05:26:07;3.50;99.90
76936;DHT22;65881;52.438;16.744;2024-01-27T05:28:33;3.50;99.90
76936;DHT22;65881;52.438;16.744;2024-01-27T05:30:58;3.50;99.90
76936;DHT22;65881;52.438;16.744;2024-01-27T05:33:24;3.50;99.90
76936;DHT22;65881;52.438;16.744;2024-01-27T05:35:50;3.50;99.90
76936;DHT22;65881;52.438;16.744;2024-01-27T05:38:16;3.50;99.90
76936;DHT22;65881;52.438;16.744;2024-01-27T05:40:42;3.50;99.90
76936;DHT22;65881;52.438;16.744;2024-01-27T05:43:07;3.40;99.90
76936;DHT22;65881;52.438;16.744;2024-01-27T05:45:33;3.50;99.90
76936;DHT22;65881;52.438;16.744;2024-01-27T05:47:59;3.40;99.90
76936;DHT22;65881;52.438;16.744;2024-01-27T05:50:26;3.40;99.90
76936;DHT22;65881;52.438;16.744;2024-01-27T05:52:51;3.50;99.90
76936;DHT22;65881;52.438;16.744;2024-01-27T05:55:18;3.50;99.90
76936;DHT22;65881;52.438;16.744;2024-01-27T05:57:44;3.50;99.90
76936;DHT22;65881;52.438;16.744;2024-01-27T06:00:10;3.50;99.90
76936;DHT22;65881;52.438;16.744;2024-01-27T06:02:35;3.50;99.90
76936;DHT22;65881;52.438;16.744;2024-01-27T06:05:05;3.50;99.90
76936;DHT22;65881;52.438;16.744;2024-01-27T06:07:31;3.50;99.90
76936;DHT22;65881;52.438;16.744;2024-01-27T06:09:56;3.50;99.90
76936;DHT22;65881;52.438;16.744;2024-01-27T06:12:22;3.50;99.90
76936;DHT22;65881;52.438;16.744;2024-01-27T06:14:50;3.40;99.90
76936;DHT22;65881;52.438;16.744;2024-01-27T06:17:15;3.40;99.90
76936;DHT22;65881;52.438;16.744;2024-01-27T06:19:42;3.50;99.90
76936;DHT22;65881;52.438;16.744;2024-01-27T06:22:08;3.50;99.90
76936;DHT22;65881;52.438;16.744;2024-01-27T06:24:34;3.40;99.90
76936;DHT22;65881;52.438;16.744;2024-01-27T06:26:59;3.40;99.90
76936;DHT22;65881;52.438;16.744;2024-01-27T06:29:25;3.40;99.90
76936;DHT22;65881;52.438;16.744;2024-01-27T06:31:52;3.50;99.90
76936;DHT22;65881;52.438;16.744;2024-01-27T06:34:18;3.50;99.90
76936;DHT22;65881;52.438;16.744;2024-01-27T06:36:43;3.50;99.90
76936;DHT22;65881;52.438;16.744;2024-01-27T06:39:09;3.50;99.90
76936;DHT22;65881;52.438;16.744;2024-01-27T06:41:35;3.50;99.90
76936;DHT22;65881;52.438;16.744;2024-01-27T06:44:00;3.50;99.90
76936;DHT22;65881;52.438;16.744;2024-01-27T06:46:26;3.50;99.90
76936;DHT22;65881;52.438;16.744;2024-01-27T06:48:53;3.50;99.90
76936;DHT22;65881;52.438;16.744;2024-01-27T06:51:18;3.50;99.90
76936;DHT22;65881;52.438;16.744;2024-01-27T06:53:44;3.50;99.90
76936;DHT22;65881;52.438;16.744;2024-01-27T06:56:10;3.60;99.90
76936;DHT22;65881;52.438;16.744;2024-01-27T06:58:35;3.60;99.90
76936;DHT22;65881;52.438;16.744;2024-01-27T07:01:02;3.60;99.90
76936;DHT22;65881;52.438;16.744;2024-01-27T07:03:28;3.70;99.90
76936;DHT22;65881;52.438;16.744;2024-01-27T07:05:53;3.70;99.90
76936;DHT22;65881;52.438;16.744;2024-01-27T07:08:19;3.80;99.90
76936;DHT22;65881;52.438;16.744;2024-01-27T07:10:45;3.80;99.90
76936;DHT22;65881;52.438;16.744;2024-01-27T07:13:11;3.90;99.90
76936;DHT22;65881;52.438;16.744;2024-01-27T07:15:36;3.90;99.90
76936;DHT22;65881;52.438;16.744;2024-01-27T07:18:03;3.90;99.90
76936;DHT22;65881;52.438;16.744;2024-01-27T07:20:28;3.90;99.90
76936;DHT22;65881;52.438;16.744;2024-01-27T07:22:54;3.90;99.90
76936;DHT22;65881;52.438;16.744;2024-01-27T07:25:20;4.00;99.90
76936;DHT22;65881;52.438;16.744;2024-01-27T07:27:45;4.00;99.90
76936;DHT22;65881;52.438;16.744;2024-01-27T07:30:11;3.90;99.90
76936;DHT22;65881;52.438;16.744;2024-01-27T07:32:37;4.00;99.90
76936;DHT22;65881;52.438;16.744;2024-01-27T07:35:03;4.00;99.90
76936;DHT22;65881;52.438;16.744;2024-01-27T07:37:31;4.00;99.90
76936;DHT22;65881;52.438;16.744;2024-01-27T07:39:59;4.00;99.90
76936;DHT22;65881;52.438;16.744;2024-01-27T07:42:24;4.00;99.90
76936;DHT22;65881;52.438;16.744;2024-01-27T07:44:50;4.00;99.90
76936;DHT22;65881;52.438;16.744;2024-01-27T07:47:15;4.10;99.90
76936;DHT22;65881;52.438;16.744;2024-01-27T07:49:41;4.10;99.90
76936;DHT22;65881;52.438;16.744;2024-01-27T07:52:07;4.10;99.90
76936;DHT22;65881;52.438;16.744;2024-01-27T07:54:32;4.10;99.90
76936;DHT22;65881;52.438;16.744;2024-01-27T07:57:04;4.20;99.90
76936;DHT22;65881;52.438;16.744;2024-01-27T07:59:30;4.20;99.90
76936;DHT22;65881;52.438;16.744;2024-01-27T08:01:55;4.20;99.90
76936;DHT22;65881;52.438;16.744;2024-01-27T08:04:21;4.20;99.90
76936;DHT22;65881;52.438;16.744;2024-01-27T08:06:49;4.20;99.90
76936;DHT22;65881;52.438;16.744;2024-01-27T08:09:15;4.20;99.90
76936;DHT22;65881;52.438;16.744;2024-01-27T08:11:41;4.20;99.90
76936;DHT22;65881;52.438;16.744;2024-01-27T08:14:07;4.20;99.90
76936;DHT22;65881;52.438;16.744;2024-01-27T08:16:33;4.20;99.90
76936;DHT22;65881;52.438;16.744;2024-01-27T08:18:59;4.20;99.90
76936;DHT22;65881;52.438;16.744;2024-01-27T08:21:24;4.20;99.90
76936;DHT22;65881;52.438;16.744;2024-01-27T08:23:50;4.30;99.90
76936;DHT22;65881;52.438;16.744;2024-01-27T08:26:15;4.20;99.90
76936;DHT22;65881;52.438;16.744;2024-01-27T08:28:41;4.30;99.90
76936;DHT22;65881;52.438;16.744;2024-01-27T08:31:07;4.30;99.90
76936;DHT22;65881;52.438;16.744;2024-01-27T08:33:32;4.30;99.90
76936;DHT22;65881;52.438;16.744;2024-01-27T08:35:59;4.40;99.90
76936;DHT22;65881;52.438;16.744;2024-01-27T08:38:26;4.40;99.90
76936;DHT22;65881;52.438;16.744;2024-01-27T08:40:51;4.40;99.90
76936;DHT22;65881;52.438;16.744;2024-01-27T08:43:19;4.40;99.90
76936;DHT22;65881;52.438;16.744;2024-01-27T08:45:44;4.40;99.90
76936;DHT22;65881;52.438;16.744;2024-01-27T08:48:10;4.40;99.90
76936;DHT22;65881;52.438;16.744;2024-01-27T08:50:39;4.50;99.90
76936;DHT22;65881;52.438;16.744;2024-01-27T08:53:07;4.50;99.90
76936;DHT22;65881;52.438;16.744;2024-01-27T08:55:33;4.50;99.90
76936;DHT22;65881;52.438;16.744;2024-01-27T08:57:58;4.60;99.90
76936;DHT22;65881;52.438;16.744;2024-01-27T09:00:24;4.60;99.90
76936;DHT22;65881;52.438;16.744;2024-01-27T09:02:51;4.70;99.90
76936;DHT22;65881;52.438;16.744;2024-01-27T09:05:17;4.80;99.90
76936;DHT22;65881;52.438;16.744;2024-01-27T09:07:42;4.80;99.90
76936;DHT22;65881;52.438;16.744;2024-01-27T09:10:08;4.70;99.90
76936;DHT22;65881;52.438;16.744;2024-01-27T09:12:35;4.70;99.90
76936;DHT22;65881;52.438;16.744;2024-01-27T09:15:00;4.60;99.90
76936;DHT22;65881;52.438;16.744;2024-01-27T09:17:26;4.70;99.90
76936;DHT22;65881;52.438;16.744;2024-01-27T09:19:51;4.60;99.90
76936;DHT22;65881;52.438;16.744;2024-01-27T09:22:17;4.60;99.90
76936;DHT22;65881;52.438;16.744;2024-01-27T09:24:43;4.60;99.90
76936;DHT22;65881;52.438;16.744;2024-01-27T09:27:09;4.60;99.90
76936;DHT22;65881;52.438;16.744;2024-01-27T09:29:34;4.70;99.90
76936;DHT22;65881;52.438;16.744;2024-01-27T09:32:00;4.70;99.90
76936;DHT22;65881;52.438;16.744;2024-01-27T09:34:25;4.60;99.90
76936;DHT22;65881;52.438;16.744;2024-01-27T09:36:53;4.70;99.90
76936;DHT22;65881;52.438;16.744;2024-01-27T09:39:18;4.70;99.90
76936;DHT22;65881;52.438;16.744;2024-01-27T09:41:44;4.70;99.90
76936;DHT22;65881;52.438;16.744;2024-01-27T09:44:12;4.70;99.90
76936;DHT22;65881;52.438;16.744;2024-01-27T09:46:38;4.70;99.90
76936;DHT22;65881;52.438;16.744;2024-01-27T09:49:04;4.80;99.90
76936;DHT22;65881;52.438;16.744;2024-01-27T09:51:30;4.80;99.90
76936;DHT22;65881;52.438;16.744;2024-01-27T09:53:56;4.80;99.90
76936;DHT22;65881;52.438;16.744;2024-01-27T09:56:22;5.00;99.90
76936;DHT22;65881;52.438;16.744;2024-01-27T09:58:49;5.00;99.90
76936;DHT22;65881;52.438;16.744;2024-01-27T10:01:16;5.10;99.90
76936;DHT22;65881;52.438;16.744;2024-01-27T10:03:46;5.10;99.90
76936;DHT22;65881;52.438;16.744;2024-01-27T10:06:12;5.00;99.90
76936;DHT22;65881;52.438;16.744;2024-01-27T10:08:39;5.00;99.90
76936;DHT22;65881;52.438;16.744;2024-01-27T10:11:09;5.00;99.90
76936;DHT22;65881;52.438;16.744;2024-01-27T10:13:36;5.00;99.90
76936;DHT22;65881;52.438;16.744;2024-01-27T10:16:21;5.00;99.90
76936;DHT22;65881;52.438;16.744;2024-01-27T10:18:47;4.90;99.90
76936;DHT22;65881;52.438;16.744;2024-01-27T10:21:14;4.80;99.90
76936;DHT22;65881;52.438;16.744;2024-01-27T10:23:40;4.90;99.90
76936;DHT22;65881;52.438;16.744;2024-01-27T10:26:09;5.00;99.90
76936;DHT22;65881;52.438;16.744;2024-01-27T10:28:36;5.00;99.90
76936;DHT22;65881;52.438;16.744;2024-01-27T10:31:13;5.00;99.90
76936;DHT22;65881;52.438;16.744;2024-01-27T10:33:39;5.10;99.90
76936;DHT22;65881;52.438;16.744;2024-01-27T10:36:05;5.30;99.90
76936;DHT22;65881;52.438;16.744;2024-01-27T10:38:37;5.20;99.90
76936;DHT22;65881;52.438;16.744;2024-01-27T10:41:08;5.20;99.90
76936;DHT22;65881;52.438;16.744;2024-01-27T10:43:38;5.30;99.90
76936;DHT22;65881;52.438;16.744;2024-01-27T10:46:06;5.30;99.90
76936;DHT22;65881;52.438;16.744;2024-01-27T10:48:36;5.30;99.90
76936;DHT22;65881;52.438;16.744;2024-01-27T10:51:09;5.50;99.90
76936;DHT22;65881;52.438;16.744;2024-01-27T10:53:36;5.70;99.90
76936;DHT22;65881;52.438;16.744;2024-01-27T10:56:13;5.70;99.90
76936;DHT22;65881;52.438;16.744;2024-01-27T10:58:43;5.60;99.90
76936;DHT22;65881;52.438;16.744;2024-01-27T11:01:11;5.70;99.90
76936;DHT22;65881;52.438;16.744;2024-01-27T11:03:40;5.90;99.90
76936;DHT22;65881;52.438;16.744;2024-01-27T11:06:08;6.10;99.90
76936;DHT22;65881;52.438;16.744;2024-01-27T11:08:34;6.10;99.90
76936;DHT22;65881;52.438;16.744;2024-01-27T11:11:01;6.30;99.90
76936;DHT22;65881;52.438;16.744;2024-01-27T11:13:32;6.20;99.90
76936;DHT22;65881;52.438;16.744;2024-01-27T11:15:58;6.00;99.90
76936;DHT22;65881;52.438;16.744;2024-01-27T11:18:27;6.00;99.90
76936;DHT22;65881;52.438;16.744;2024-01-27T11:20:55;5.80;99.90
76936;DHT22;65881;52.438;16.744;2024-01-27T11:23:31;5.80;99.90
76936;DHT22;65881;52.438;16.744;2024-01-27T11:26:07;5.80;99.90
76936;DHT22;65881;52.438;16.744;2024-01-27T11:28:33;5.80;99.90
76936;DHT22;65881;52.438;16.744;2024-01-27T11:31:06;5.90;99.90
76936;DHT22;65881;52.438;16.744;2024-01-27T11:33:32;5.90;99.90
76936;DHT22;65881;52.438;16.744;2024-01-27T11:36:06;5.90;99.90
76936;DHT22;65881;52.438;16.744;2024-01-27T11:38:32;5.80;99.90
76936;DHT22;65881;52.438;16.744;2024-01-27T11:41:01;5.70;99.90
76936;DHT22;65881;52.438;16.744;2024-01-27T11:43:27;5.70;99.90
76936;DHT22;65881;52.438;16.744;2024-01-27T11:45:57;5.80;99.90
76936;DHT22;65881;52.438;16.744;2024-01-27T11:48:23;5.90;99.90
76936;DHT22;65881;52.438;16.744;2024-01-27T11:50:49;6.10;99.90
76936;DHT22;65881;52.438;16.744;2024-01-27T11:53:23;6.10;99.90
76936;DHT22;65881;52.438;16.744;2024-01-27T11:55:55;5.90;99.90
76936;DHT22;65881;52.438;16.744;2024-01-27T11:58:24;6.00;99.90
76936;DHT22;65881;52.438;16.744;2024-01-27T12:00:50;6.00;99.90
76936;DHT22;65881;52.438;16.744;2024-01-27T12:03:16;6.10;99.90
76936;DHT22;65881;52.438;16.744;2024-01-27T12:05:42;6.10;99.90
76936;DHT22;65881;52.438;16.744;2024-01-27T12:08:08;6.30;99.90
76936;DHT22;65881;52.438;16.744;2024-01-27T12:10:34;6.20;99.90
76936;DHT22;65881;52.438;16.744;2024-01-27T12:13:01;6.20;99.90
76936;DHT22;65881;52.438;16.744;2024-01-27T12:15:29;6.20;99.90
76936;DHT22;65881;52.438;16.744;2024-01-27T12:17:54;6.40;99.90
76936;DHT22;65881;52.438;16.744;2024-01-27T12:20:23;6.70;99.90
76936;DHT22;65881;52.438;16.744;2024-01-27T12:22:50;6.90;99.90
76936;DHT22;65881;52.438;16.744;2024-01-27T12:25:21;7.00;99.90
76936;DHT22;65881;52.438;16.744;2024-01-27T12:30:46;6.70;99.90
76936;DHT22;65881;52.438;16.744;2024-01-27T12:33:12;6.60;99.90
76936;DHT22;65881;52.438;16.744;2024-01-27T12:35:39;6.50;99.90
76936;DHT22;65881;52.438;16.744;2024-01-27T12:38:07;6.60;99.90
76936;DHT22;65881;52.438;16.744;2024-01-27T12:40:46;6.40;99.90
76936;DHT22;65881;52.438;16.744;2024-01-27T12:43:12;6.20;99.90
76936;DHT22;65881;52.438;16.744;2024-01-27T12:45:38;6.20;99.90
76936;DHT22;65881;52.438;16.744;2024-01-27T12:48:07;6.20;99.90
76936;DHT22;65881;52.438;16.744;2024-01-27T12:50:32;6.10;99.90
76936;DHT22;65881;52.438;16.744;2024-01-27T12:52:59;6.10;99.90
76936;DHT22;65881;52.438;16.744;2024-01-27T12:55:25;6.20;99.90
76936;DHT22;65881;52.438;16.744;2024-01-27T12:57:51;6.30;99.90
76936;DHT22;65881;52.438;16.744;2024-01-27T13:00:17;6.20;99.90
76936;DHT22;65881;52.438;16.744;2024-01-27T13:02:43;6.00;99.90
76936;DHT22;65881;52.438;16.744;2024-01-27T13:05:08;6.00;99.90
76936;DHT22;65881;52.438;16.744;2024-01-27T13:07:40;6.00;99.90
76936;DHT22;65881;52.438;16.744;2024-01-27T13:10:07;6.00;99.90
76936;DHT22;65881;52.438;16.744;2024-01-27T13:12:33;5.90;99.90
76936;DHT22;65881;52.438;16.744;2024-01-27T13:14:58;5.80;99.90
76936;DHT22;65881;52.438;16.744;2024-01-27T13:17:39;5.80;99.90
76936;DHT22;65881;52.438;16.744;2024-01-27T13:20:07;5.80;99.90
76936;DHT22;65881;52.438;16.744;2024-01-27T13:22:34;5.80;99.90
76936;DHT22;65881;52.438;16.744;2024-01-27T13:24:59;5.80;99.90
76936;DHT22;65881;52.438;16.744;2024-01-27T13:27:27;5.80;99.90
76936;DHT22;65881;52.438;16.744;2024-01-27T13:29:53;5.90;99.90
76936;DHT22;65881;52.438;16.744;2024-01-27T13:32:19;5.90;99.90
76936;DHT22;65881;52.438;16.744;2024-01-27T13:34:44;5.80;99.90
76936;DHT22;65881;52.438;16.744;2024-01-27T13:37:10;5.70;99.90
76936;DHT22;65881;52.438;16.744;2024-01-27T13:39:36;5.60;99.90
76936;DHT22;65881;52.438;16.744;2024-01-27T13:42:03;5.60;99.90
76936;DHT22;65881;52.438;16.744;2024-01-27T13:44:30;5.50;99.90
76936;DHT22;65881;52.438;16.744;2024-01-27T13:46:55;5.50;99.90
76936;DHT22;65881;52.438;16.744;2024-01-27T13:49:26;5.50;99.90
76936;DHT22;65881;52.438;16.744;2024-01-27T13:51:51;5.50;99.90
76936;DHT22;65881;52.438;16.744;2024-01-27T13:54:18;5.50;99.90
76936;DHT22;65881;52.438;16.744;2024-01-27T13:56:44;5.50;99.90
76936;DHT22;65881;52.438;16.744;2024-01-27T13:59:10;5.50;99.90
76936;DHT22;65881;52.438;16.744;2024-01-27T14:01:36;5.60;99.90
76936;DHT22;65881;52.438;16.744;2024-01-27T14:04:02;5.60;99.90
76936;DHT22;65881;52.438;16.744;2024-01-27T14:06:27;5.60;99.90
76936;DHT22;65881;52.438;16.744;2024-01-27T14:08:53;5.70;99.90
76936;DHT22;65881;52.438;16.744;2024-01-27T14:11:19;5.70;99.90
76936;DHT22;65881;52.438;16.744;2024-01-27T14:13:46;5.60;99.90
76936;DHT22;65881;52.438;16.744;2024-01-27T14:16:12;5.60;99.90
76936;DHT22;65881;52.438;16.744;2024-01-27T14:18:37;5.50;99.90
76936;DHT22;65881;52.438;16.744;2024-01-27T14:21:03;5.40;99.90
76936;DHT22;65881;52.438;16.744;2024-01-27T14:23:29;5.30;99.90
76936;DHT22;65881;52.438;16.744;2024-01-27T14:25:54;5.30;99.90
76936;DHT22;65881;52.438;16.744;2024-01-27T14:28:20;5.40;99.90
76936;DHT22;65881;52.438;16.744;2024-01-27T14:30:48;5.50;99.90
76936;DHT22;65881;52.438;16.744;2024-01-27T14:33:13;5.50;99.90
76936;DHT22;65881;52.438;16.744;2024-01-27T14:35:41;5.50;99.90
76936;DHT22;65881;52.438;16.744;2024-01-27T14:38:07;5.50;99.90
76936;DHT22;65881;52.438;16.744;2024-01-27T14:40:34;5.40;99.90
76936;DHT22;65881;52.438;16.744;2024-01-27T14:43:01;5.30;99.90
76936;DHT22;65881;52.438;16.744;2024-01-27T14:45:31;5.30;99.90
76936;DHT22;65881;52.438;16.744;2024-01-27T14:47:56;5.30;99.90
76936;DHT22;65881;52.438;16.744;2024-01-27T14:50:22;5.30;99.90
76936;DHT22;65881;52.438;16.744;2024-01-27T14:52:49;5.20;99.90
76936;DHT22;65881;52.438;16.744;2024-01-27T14:55:14;5.10;99.90
76936;DHT22;65881;52.438;16.744;2024-01-27T14:57:41;5.10;99.90
76936;DHT22;65881;52.438;16.744;2024-01-27T15:00:07;5.10;99.90
76936;DHT22;65881;52.438;16.744;2024-01-27T15:02:32;5.10;99.90
76936;DHT22;65881;52.438;16.744;2024-01-27T15:04:58;5.10;99.90
76936;DHT22;65881;52.438;16.744;2024-01-27T15:07:24;5.00;99.90
76936;DHT22;65881;52.438;16.744;2024-01-27T15:09:55;5.00;99.90
76936;DHT22;65881;52.438;16.744;2024-01-27T15:12:21;4.90;99.90
76936;DHT22;65881;52.438;16.744;2024-01-27T15:14:46;4.80;99.90
76936;DHT22;65881;52.438;16.744;2024-01-27T15:17:12;4.70;99.90
76936;DHT22;65881;52.438;16.744;2024-01-27T15:19:38;4.70;99.90
76936;DHT22;65881;52.438;16.744;2024-01-27T15:22:04;4.70;99.90
76936;DHT22;65881;52.438;16.744;2024-01-27T15:24:29;4.70;99.90
76936;DHT22;65881;52.438;16.744;2024-01-27T15:26:58;4.60;99.90
76936;DHT22;65881;52.438;16.744;2024-01-27T15:29:24;4.50;99.90